Time;durP1;ratioP1;P1;durP2;ratioP2;P2;SDS_P1;SDS_P2;PMS_P1;PMS_P2;Temp;Humidity;BMP_temperature;BMP_pressure;BME280_temperature;BME280_humidity;BME280_pressure;Samples;Min_cycle;Max_cycle;Signal;HPM_P1;HPM_P2
2022/02/11 00:02:18;;;;;;;;;12.00;10.75;;;;;8.46;58.57;102234.88;5041798;28;45505;-50
2022/02/11 00:07:32;;;;;;;;;14.00;12.25;;;;;8.43;58.57;102243.53;5040602;28;45557;-50
2022/02/11 00:09:58;;;;;;;;;18.00;13.25;;;;;8.41;58.62;102237.38;5041315;28;45391;-49
2022/02/11 00:12:27;;;;;;;;;13.75;12.50;;;;;8.39;58.44;102246.97;5040496;28;45345;-50
2022/02/11 00:17:34;;;;;;;;;18.50;13.50;;;;;8.34;58.66;102258.19;5041618;28;45431;-49
2022/02/11 00:20:00;;;;;;;;;15.00;12.50;;;;;8.32;58.52;102252.06;5039826;28;48104;-52
2022/02/11 00:22:26;;;;;;;;;13.50;12.00;;;;;8.29;58.42;102247.66;5041599;28;45230;-50
2022/02/11 00:24:53;;;;;;;;;16.25;15.50;;;;;8.27;58.67;102246.72;5041376;28;45310;-51
2022/02/11 00:35:39;;;;;;;;;14.50;14.00;;;;;8.19;58.42;102257.06;5041226;28;45269;-47
2022/02/11 00:38:11;;;;;;;;;14.00;12.25;;;;;8.17;58.48;102252.63;5041229;28;45219;-51
2022/02/11 00:44:37;;;;;;;;;16.25;14.75;;;;;8.15;58.65;102263.09;5040998;28;45232;-52
2022/02/11 00:46:19;;;;;;;;;17.25;15.00;;;;;8.13;58.69;102255.19;5040986;28;45398;-49
2022/02/11 01:02:12;;;;;;;;;13.25;12.50;;;;;8.14;58.46;102259.56;5040772;28;45415;-51
2022/02/11 01:04:38;;;;;;;;;17.75;16.75;;;;;8.11;58.66;102262.16;5040503;28;45354;-48
2022/02/11 01:07:03;;;;;;;;;17.50;14.00;;;;;8.16;58.65;102266.59;5040942;28;45318;-51
2022/02/11 01:09:29;;;;;;;;;13.75;12.00;;;;;8.13;58.80;102273.50;5040614;28;45306;-50
2022/02/11 01:11:58;;;;;;;;;11.75;10.00;;;;;8.15;58.53;102270.94;5040694;28;45358;-50
2022/02/11 01:14:36;;;;;;;;;12.00;12.00;;;;;8.16;58.55;102279.69;5039552;28;45360;-52
2022/02/11 01:17:31;;;;;;;;;17.25;13.50;;;;;8.15;58.70;102281.44;5040738;28;45527;-52
2022/02/11 01:20:07;;;;;;;;;15.50;12.50;;;;;8.16;58.55;102282.28;5038961;28;45875;-52
2022/02/11 01:27:57;;;;;;;;;15.50;10.75;;;;;8.13;58.66;102285.72;5040905;28;45165;-48
2022/02/11 01:33:24;;;;;;;;;14.75;12.50;;;;;8.10;58.86;102288.28;5040336;28;45399;-51
2022/02/11 01:35:59;;;;;;;;;11.50;11.50;;;;;8.07;58.47;102294.34;5039933;28;45263;-49
2022/02/11 01:52:18;;;;;;;;;9.25;8.50;;;;;7.98;58.48;102302.00;5040156;28;45323;-48
2022/02/11 02:24:53;;;;;;;;;8.50;6.75;;;;;7.72;58.36;102332.81;5039624;28;45251;-52
2022/02/11 02:31:24;;;;;;;;;7.25;7.25;;;;;7.71;58.36;102339.81;5039605;28;45232;-51
2022/02/11 02:57:20;;;;;;;;;11.25;9.25;;;;;7.76;58.25;102352.97;5039202;28;45418;-46
2022/02/11 04:53:08;;;;;;;;;10.00;9.00;;;;;7.46;58.52;102477.88;5041143;28;45402;-48
2022/02/11 04:55:27;;;;;;;;;7.75;6.50;;;;;7.44;58.25;102474.31;5040895;28;45224;-51
2022/02/11 05:00:40;;;;;;;;;11.25;9.75;;;;;7.44;58.22;102479.53;5040924;28;45382;-50
2022/02/11 05:03:07;;;;;;;;;12.25;9.00;;;;;7.43;58.15;102484.75;5041184;28;45302;-49
2022/02/11 05:05:51;;;;;;;;;9.50;7.75;;;;;7.43;58.17;102487.34;5040695;28;45567;-48
2022/02/11 05:08:23;;;;;;;;;15.50;11.50;;;;;7.41;58.27;102491.66;5040675;28;46161;-51
2022/02/11 05:10:50;;;;;;;;;13.00;11.75;;;;;7.42;58.20;102499.56;5040589;28;45308;-51
2022/02/11 05:13:16;;;;;;;;;12.00;8.50;;;;;7.37;58.25;102493.31;5040888;28;45350;-48
2022/02/11 05:15:42;;;;;;;;;10.50;9.75;;;;;7.39;58.18;102502.06;5040894;28;45312;-50
2022/02/11 05:18:08;;;;;;;;;9.25;8.00;;;;;7.38;58.09;102504.66;5040585;28;46046;-51
2022/02/11 05:20:35;;;;;;;;;13.25;9.75;;;;;7.37;58.19;102503.78;5039027;28;45340;-51
2022/02/11 05:23:08;;;;;;;;;14.00;12.50;;;;;7.37;58.08;102503.78;5039242;28;45295;-50
2022/02/11 05:25:35;;;;;;;;;15.00;13.25;;;;;7.36;58.07;102512.47;5039181;28;45391;-51
2022/02/11 05:28:01;;;;;;;;;10.25;9.75;;;;;7.32;58.21;102518.47;5040436;28;45320;-49
2022/02/11 05:30:26;;;;;;;;;11.00;11.00;;;;;7.35;58.24;102523.78;5040581;28;45221;-51
2022/02/11 05:32:52;;;;;;;;;10.00;10.00;;;;;7.35;58.03;102526.38;5040645;28;45292;-50
2022/02/11 05:35:17;;;;;;;;;11.00;10.00;;;;;7.32;58.25;102526.31;5040693;28;45465;-52
2022/02/11 05:37:42;;;;;;;;;8.75;7.75;;;;;7.30;58.11;102528.88;5040378;28;46112;-48
2022/02/11 05:40:08;;;;;;;;;15.75;12.50;;;;;7.30;58.21;102525.38;5038823;28;45405;-51
2022/02/11 05:42:34;;;;;;;;;8.00;7.00;;;;;7.21;58.14;102517.25;5038747;28;45625;-51
2022/02/11 05:44:59;;;;;;;;;9.50;9.25;;;;;7.29;58.09;102542.78;5039482;28;45537;-52
2022/02/11 05:47:25;;;;;;;;;9.25;8.25;;;;;7.24;58.26;102530.44;5040293;28;45264;-50
2022/02/11 05:49:50;;;;;;;;;8.00;7.00;;;;;7.26;58.11;102537.47;5038808;28;45649;-47
2022/02/11 05:52:15;;;;;;;;;15.50;10.75;;;;;7.25;58.15;102545.28;5040379;28;45232;-51
2022/02/11 05:54:41;;;;;;;;;9.50;7.00;;;;;7.24;58.25;102559.19;5039699;28;45283;-51
2022/02/11 05:57:06;;;;;;;;;11.25;8.50;;;;;7.22;58.05;102555.63;5039980;28;45824;-48
2022/02/11 05:59:32;;;;;;;;;14.75;11.00;;;;;7.21;58.21;102564.31;5038676;28;45430;-51
2022/02/11 06:01:57;;;;;;;;;16.75;11.75;;;;;7.19;58.39;102571.25;5038817;28;45390;-50
2022/02/11 06:04:24;;;;;;;;;11.75;10.50;;;;;7.18;58.04;102567.75;5039853;28;45319;-51
2022/02/11 06:06:51;;;;;;;;;11.00;9.25;;;;;7.16;58.16;102578.16;5039803;28;45511;-49
2022/02/11 06:09:18;;;;;;;;;12.00;10.25;;;;;7.13;58.27;102572.84;5039548;28;45395;-50
2022/02/11 06:11:44;;;;;;;;;18.25;17.00;;;;;7.15;57.74;102580.72;5039668;28;45486;-50
2022/02/11 06:14:09;;;;;;;;;22.25;20.00;;;;;7.13;58.13;102579.78;5039850;28;45299;-48
2022/02/11 06:16:34;;;;;;;;;22.25;17.00;;;;;7.11;58.34;102584.09;5039863;28;46208;-49
2022/02/11 06:19:00;;;;;;;;;17.25;16.50;;;;;7.07;58.09;102583.13;5038610;28;45343;-52
2022/02/11 06:21:25;;;;;;;;;23.00;20.75;;;;;7.06;58.36;102589.19;5039421;28;45315;-50
2022/02/11 06:23:55;;;;;;;;;29.50;18.50;;;;;7.04;58.32;102582.16;5039548;28;45435;-46
2022/02/11 06:26:23;;;;;;;;;25.75;22.00;;;;;7.02;58.16;102587.34;5039634;28;46023;-47
2022/02/11 06:28:50;;;;;;;;;25.75;23.75;;;;;7.01;58.21;102593.41;5038288;28;45365;-47
2022/02/11 06:31:15;;;;;;;;;23.50;21.25;;;;;6.98;58.25;102590.69;5039631;28;45390;-51
2022/02/11 06:33:41;;;;;;;;;26.00;18.50;;;;;6.96;58.29;102597.59;5039501;28;45756;-46
2022/02/11 06:36:06;;;;;;;;;29.50;21.75;;;;;6.94;58.13;102596.66;5037951;28;47315;-50
2022/02/11 06:38:32;;;;;;;;;17.50;15.75;;;;;6.92;58.40;102608.81;5039595;28;45447;-50
2022/02/11 06:40:57;;;;;;;;;14.25;11.75;;;;;6.90;58.20;102619.19;5038187;28;45224;-50
2022/02/11 06:43:22;;;;;;;;;16.25;14.00;;;;;6.81;58.46;102611.09;5039553;28;45312;-51
2022/02/11 06:45:48;;;;;;;;;19.00;15.50;;;;;6.87;58.29;102626.97;5039295;28;45590;-51
2022/02/11 06:48:16;;;;;;;;;15.75;15.75;;;;;6.76;58.42;102618.78;5039275;28;45319;-47
2022/02/11 06:50:42;;;;;;;;;22.50;17.50;;;;;6.82;58.24;102629.41;5039260;28;45170;-48
2022/02/11 06:53:09;;;;;;;;;15.25;13.75;;;;;6.81;58.21;102635.47;5038047;28;45501;-46
2022/02/11 06:55:35;;;;;;;;;25.00;23.25;;;;;6.81;58.35;102635.47;5041258;28;46187;-46
2022/02/11 06:58:00;;;;;;;;;19.50;16.50;;;;;6.79;58.18;102637.19;5042866;28;45247;-47
2022/02/11 07:00:26;;;;;;;;;23.00;16.25;;;;;6.78;58.29;102643.22;5042864;28;45798;-47
2022/02/11 07:02:52;;;;;;;;;17.25;16.50;;;;;6.77;58.24;102646.69;5042515;28;45390;-46
2022/02/11 07:05:19;;;;;;;;;22.50;15.00;;;;;6.75;58.22;102645.72;5042485;28;45454;-48
2022/02/11 07:07:44;;;;;;;;;17.25;15.75;;;;;6.73;58.30;102650.03;5042277;28;45430;-50
2022/02/11 07:10:10;;;;;;;;;23.25;20.75;;;;;6.72;58.39;102653.50;5042100;28;45866;-46
2022/02/11 07:12:35;;;;;;;;;13.75;12.00;;;;;6.72;57.68;102657.84;5042001;28;45520;-48
2022/02/11 07:15:01;;;;;;;;;21.75;16.50;;;;;6.69;58.45;102655.97;5042347;28;45932;-48
2022/02/11 07:17:27;;;;;;;;;24.50;21.75;;;;;6.68;58.25;102667.31;5041418;28;45831;-47
2022/02/11 07:19:52;;;;;;;;;21.25;17.25;;;;;6.66;58.18;102679.41;5042444;28;45180;-48
2022/02/11 07:22:17;;;;;;;;;20.75;16.50;;;;;6.65;58.29;102689.00;5042589;28;45411;-51
2022/02/11 07:24:43;;;;;;;;;14.25;14.25;;;;;6.64;58.16;102700.28;5042386;28;46955;-46
2022/02/11 07:27:10;;;;;;;;;25.25;20.50;;;;;6.62;58.34;102706.28;5042468;28;45306;-43
2022/02/11 07:29:35;;;;;;;;;22.25;20.00;;;;;6.60;58.43;102710.56;5042435;28;45339;-47
2022/02/11 07:32:02;;;;;;;;;23.50;22.00;;;;;6.58;58.16;102713.13;5042371;28;45596;-50
2022/02/11 07:34:28;;;;;;;;;23.25;19.25;;;;;6.57;58.27;102720.91;5041698;28;46201;-45
2022/02/11 07:36:53;;;;;;;;;23.75;20.50;;;;;6.52;58.34;102712.03;5042274;28;45344;-48
2022/02/11 07:39:19;;;;;;;;;19.50;17.75;;;;;6.57;58.17;102728.75;5041884;28;45313;-47
2022/02/11 07:41:44;;;;;;;;;22.00;21.25;;;;;6.57;58.19;102727.03;5042239;28;45477;-49
2022/02/11 07:44:10;;;;;;;;;19.25;16.00;;;;;6.54;58.22;102732.16;5041974;28;45954;-44
2022/02/11 07:46:35;;;;;;;;;18.00;17.50;;;;;6.55;58.21;102746.97;5042217;28;45399;-45
2022/02/11 07:49:01;;;;;;;;;19.00;16.25;;;;;6.54;58.35;102753.06;5042258;28;45409;-44
2022/02/11 07:51:27;;;;;;;;;19.50;17.25;;;;;6.56;58.80;102750.50;5041888;28;45301;-45
2022/02/11 07:53:53;;;;;;;;;20.75;19.50;;;;;6.54;58.36;102741.69;5041820;28;45223;-46
2022/02/11 07:56:19;;;;;;;;;22.50;20.00;;;;;6.52;58.63;102746.00;5041874;28;45473;-48
2022/02/11 07:58:44;;;;;;;;;25.50;22.50;;;;;6.49;58.54;102747.66;5042053;28;45310;-48
2022/02/11 08:01:09;;;;;;;;;29.25;21.75;;;;;6.47;58.53;102757.16;5041779;28;45434;-46
2022/02/11 08:03:36;;;;;;;;;29.75;22.50;;;;;6.46;58.53;102755.38;5041853;28;46340;-46
2022/02/11 08:06:01;;;;;;;;;20.25;17.25;;;;;6.44;58.34;102759.69;5040991;28;45468;-47
2022/02/11 08:08:31;;;;;;;;;21.00;18.25;;;;;6.41;58.42;102756.94;5041655;28;45264;-49
2022/02/11 08:10:59;;;;;;;;;20.75;15.50;;;;;6.46;58.48;102772.78;5041597;28;45241;-46
2022/02/11 08:13:25;;;;;;;;;20.75;19.50;;;;;6.46;58.49;102771.03;5041500;28;46409;-46
2022/02/11 08:15:51;;;;;;;;;18.75;16.50;;;;;6.46;58.46;102772.78;5041680;28;45337;-49
2022/02/11 08:18:16;;;;;;;;;25.00;16.25;;;;;6.48;58.36;102778.97;5041529;28;45341;-50
2022/02/11 08:20:41;;;;;;;;;23.00;21.25;;;;;6.48;58.54;102778.97;5041427;28;45315;-49
2022/02/11 08:23:07;;;;;;;;;21.50;19.00;;;;;6.53;58.72;102789.56;5041406;28;46126;-49
2022/02/11 08:25:34;;;;;;;;;18.00;16.50;;;;;6.54;58.66;102783.50;5041473;28;45352;-49
2022/02/11 08:28:00;;;;;;;;;19.25;16.50;;;;;6.56;58.56;102793.16;5041677;28;45239;-50
2022/02/11 08:30:25;;;;;;;;;19.25;18.75;;;;;6.59;58.74;102802.81;5040069;28;45244;-48
2022/02/11 08:32:51;;;;;;;;;23.00;21.25;;;;;6.61;58.64;102799.44;5041238;28;46045;-52
2022/02/11 08:35:16;;;;;;;;;19.50;17.25;;;;;6.66;58.50;102802.22;5041132;28;45302;-49
2022/02/11 08:37:42;;;;;;;;;20.25;17.25;;;;;6.72;58.82;102804.16;5041588;28;45195;-48
2022/02/11 08:40:08;;;;;;;;;22.75;22.00;;;;;6.76;58.56;102812.16;5041049;28;45600;-45
2022/02/11 08:42:33;;;;;;;;;19.75;18.00;;;;;6.81;59.01;102814.94;5041065;28;45228;-47
2022/02/11 08:44:58;;;;;;;;;24.75;22.75;;;;;6.86;58.82;102802.03;5041123;28;45607;-44
2022/02/11 08:47:24;;;;;;;;;20.50;16.25;;;;;6.92;58.79;102810.09;5041271;28;45241;-48
2022/02/11 08:49:49;;;;;;;;;25.50;20.75;;;;;6.97;58.81;102819.84;5040887;28;45299;-47
2022/02/11 08:52:14;;;;;;;;;14.25;12.75;;;;;7.03;58.76;102832.25;5040845;28;46146;-51
2022/02/11 08:54:40;;;;;;;;;18.00;15.75;;;;;7.09;58.95;102834.16;5040932;28;45431;-49
2022/02/11 08:57:05;;;;;;;;;21.50;17.25;;;;;7.14;58.90;102825.66;5041176;28;45458;-45
2022/02/11 08:59:31;;;;;;;;;24.25;17.75;;;;;7.21;59.01;102826.72;5040872;28;45354;-46
2022/02/11 09:01:56;;;;;;;;;24.00;17.00;;;;;7.29;59.04;102826.97;5040767;28;45321;-48
2022/02/11 09:04:21;;;;;;;;;19.25;18.75;;;;;7.37;58.84;102837.69;5039444;28;45274;-48
2022/02/11 09:06:47;;;;;;;;;25.00;20.00;;;;;7.43;58.79;102835.28;5041125;28;45411;-45
2022/02/11 09:09:13;;;;;;;;;23.50;21.75;;;;;7.53;59.15;102839.97;5039463;28;45998;-47
2022/02/11 09:11:39;;;;;;;;;27.25;24.25;;;;;7.60;59.00;102830.59;5040578;28;46029;-48
2022/02/11 09:14:05;;;;;;;;;26.75;21.50;;;;;7.70;59.10;102831.75;5040746;28;45287;-47
2022/02/11 09:16:32;;;;;;;;;23.25;22.25;;;;;7.80;59.22;102841.69;5040770;28;45240;-46
2022/02/11 09:18:58;;;;;;;;;25.00;22.00;;;;;7.88;59.17;102841.91;5040645;28;45174;-47
2022/02/11 09:21:23;;;;;;;;;24.50;24.00;;;;;7.96;59.09;102845.63;5040337;28;45219;-49
2022/02/11 09:23:49;;;;;;;;;32.25;25.75;;;;;8.06;58.97;102855.56;5040576;28;45560;-46
2022/02/11 09:26:14;;;;;;;;;29.50;26.00;;;;;8.13;59.00;102852.28;5040724;28;45363;-45
2022/02/11 09:28:40;;;;;;;;;30.75;24.50;;;;;8.27;59.22;102864.91;5040568;28;45334;-49
2022/02/11 09:31:06;;;;;;;;;25.50;23.00;;;;;8.37;58.97;102877.41;5040380;28;46189;-49
2022/02/11 09:33:33;;;;;;;;;17.00;15.00;;;;;8.45;59.18;102870.69;5040584;28;45286;-46
2022/02/11 09:35:58;;;;;;;;;9.75;7.75;;;;;8.58;59.27;102871.94;5040388;28;45352;-46
2022/02/11 09:38:24;;;;;;;;;11.75;8.50;;;;;8.69;59.23;102879.22;5040478;28;45509;-47
2022/02/11 09:40:51;;;;;;;;;10.25;10.00;;;;;8.80;58.96;102880.38;5040230;28;45268;-46
2022/02/11 09:43:19;;;;;;;;;10.00;9.25;;;;;8.91;59.13;102885.94;5040299;28;45638;-46
2022/02/11 09:45:44;;;;;;;;;7.75;7.00;;;;;9.03;59.22;102882.75;5040528;28;45344;-46
2022/02/11 09:48:11;;;;;;;;;11.75;10.25;;;;;9.14;59.17;102880.41;5040309;28;45481;-45
2022/02/11 09:50:37;;;;;;;;;7.00;6.50;;;;;9.27;59.28;102893.88;5039982;28;45364;-46
2022/02/11 09:53:02;;;;;;;;;10.50;8.00;;;;;9.37;59.19;102895.00;5039060;28;45885;-48
2022/02/11 09:55:32;;;;;;;;;12.50;8.75;;;;;9.48;59.24;102889.13;5040417;28;45329;-45
2022/02/11 09:58:02;;;;;;;;;13.75;10.25;;;;;9.59;59.16;102888.53;5040222;28;45149;-47
2022/02/11 10:00:27;;;;;;;;;12.50;10.25;;;;;9.70;59.07;102890.56;5039809;28;46172;-47
2022/02/11 10:02:57;;;;;;;;;6.75;6.75;;;;;9.83;59.08;102897.84;5040146;28;45438;-49
2022/02/11 10:05:28;;;;;;;;;9.50;7.25;;;;;9.95;58.95;102896.34;5040009;28;45233;-45
2022/02/11 10:07:56;;;;;;;;;7.75;6.25;;;;;10.08;59.17;102895.78;5040100;28;45280;-44
2022/02/11 10:13:09;;;;;;;;;9.00;8.00;;;;;10.33;59.05;102901.59;5039954;28;45235;-48
2022/02/11 10:15:38;;;;;;;;;15.75;7.50;;;;;10.45;58.85;102893.09;5039833;28;45268;-45
2022/02/11 10:18:04;;;;;;;;;15.25;13.00;;;;;10.55;59.02;102901.22;5040002;28;46163;-46
2022/02/11 10:20:34;;;;;;;;;8.75;8.00;;;;;10.67;59.04;102900.56;5039403;28;46289;-47
2022/02/11 10:23:20;;;;;;;;;6.00;5.00;;;;;10.81;58.96;102910.47;5039840;28;45333;-49
2022/02/11 10:25:56;;;;;;;;;9.50;9.25;;;;;10.96;58.80;102899.38;5039787;28;45353;-46
2022/02/11 10:28:35;;;;;;;;;14.75;10.75;;;;;11.09;58.82;102905.72;5039550;28;45557;-49
2022/02/11 10:31:16;;;;;;;;;9.00;6.50;;;;;11.22;58.74;102907.72;5045623;28;45237;-48
2022/02/11 10:33:48;;;;;;;;;8.75;7.75;;;;;11.33;58.50;102903.53;5046197;28;45326;-47
2022/02/11 10:36:22;;;;;;;;;6.50;6.00;;;;;11.49;58.80;102922.22;5046291;28;45516;-49
2022/02/11 10:39:12;;;;;;;;;8.25;7.50;;;;;11.64;58.81;102927.72;5046416;28;45244;-49
2022/02/11 10:41:41;;;;;;;;;8.50;8.00;;;;;11.76;58.79;102920.88;5046216;28;45394;-47
2022/02/11 10:44:08;;;;;;;;;17.25;11.00;;;;;11.89;58.73;102930.75;5044928;28;45486;-47
2022/02/11 10:46:36;;;;;;;;;11.50;9.25;;;;;12.00;58.48;102931.84;5046395;28;45166;-50
2022/02/11 10:49:02;;;;;;;;;9.50;9.50;;;;;12.10;58.52;102918.78;5041170;28;45556;-45
2022/02/11 10:51:28;;;;;;;;;11.50;10.50;;;;;12.17;58.68;102929.44;5045970;28;45321;-54
2022/02/11 10:53:55;;;;;;;;;12.25;9.50;;;;;12.26;58.27;102930.44;5042927;28;45158;-45
2022/02/11 10:56:22;;;;;;;;;8.25;8.00;;;;;12.33;58.28;102933.16;5045003;28;46602;-44
2022/02/11 10:58:57;;;;;;;;;25.50;23.00;;;;;12.41;58.02;102940.31;5040593;28;45310;-46
2022/02/11 11:01:28;;;;;;;;;13.75;12.75;;;;;12.48;58.20;102936.88;5045337;28;46006;-45
2022/02/11 11:03:55;;;;;;;;;12.25;11.00;;;;;12.56;58.01;102940.50;5045346;28;45308;-46
2022/02/11 11:06:22;;;;;;;;;12.00;9.50;;;;;12.62;58.04;102939.69;5045270;28;45190;-50
2022/02/11 11:08:48;;;;;;;;;14.75;12.00;;;;;12.68;58.07;102945.91;5044911;28;45178;-47
2022/02/11 11:11:18;;;;;;;;;14.75;14.00;;;;;12.73;57.89;102951.25;5044375;28;46151;-44
2022/02/11 11:13:48;;;;;;;;;13.00;11.50;;;;;12.77;57.80;102939.00;5041634;28;45471;-47
2022/02/11 11:16:15;;;;;;;;;10.50;9.50;;;;;12.83;57.92;102945.22;5045348;28;45433;-48
2022/02/11 11:18:40;;;;;;;;;12.25;10.75;;;;;12.90;58.01;102932.09;5043834;28;45564;-47
2022/02/11 11:21:10;;;;;;;;;13.75;10.25;;;;;12.95;57.65;102946.22;5043757;28;47042;-47
2022/02/11 11:23:43;;;;;;;;;14.25;10.25;;;;;13.03;57.70;102938.38;5041961;28;45371;-45
2022/02/11 11:26:10;;;;;;;;;14.00;11.75;;;;;13.12;57.60;102933.22;5040750;28;45453;-50
2022/02/11 11:28:39;;;;;;;;;14.00;11.75;;;;;13.22;57.51;102934.16;5042701;28;45503;-47
2022/02/11 11:31:24;;;;;;;;;9.75;9.75;;;;;13.30;57.36;102935.16;5041987;28;47672;-48
2022/02/11 11:33:51;;;;;;;;;16.00;11.00;;;;;13.39;57.46;102929.97;5042321;28;45312;-48
2022/02/11 11:36:18;;;;;;;;;12.50;12.00;;;;;13.51;57.19;102936.22;5042959;28;45379;-45
2022/02/11 11:38:48;;;;;;;;;11.25;11.00;;;;;13.60;57.09;102926.63;5045681;28;45386;-47
2022/02/11 11:41:25;;;;;;;;;12.25;10.50;;;;;13.72;57.01;102925.84;5041906;28;46246;-47
2022/02/11 11:44:00;;;;;;;;;8.00;6.75;;;;;13.84;57.62;102927.69;5041178;28;45403;-48
2022/02/11 11:46:29;;;;;;;;;13.25;13.25;;;;;13.93;57.27;102930.38;5038282;28;45366;-49
2022/02/11 11:49:13;;;;;;;;;12.50;11.00;;;;;14.08;57.12;102928.72;5041309;28;45359;-48
2022/02/11 11:51:38;;;;;;;;;12.50;12.25;;;;;14.21;56.99;102927.91;5041850;28;46316;-47
2022/02/11 11:54:16;;;;;;;;;13.00;11.00;;;;;14.36;57.18;102937.66;5058242;28;45401;-45
2022/02/11 11:56:43;;;;;;;;;11.25;9.50;;;;;14.47;56.91;102927.16;5049642;28;45300;-46
2022/02/11 11:59:34;;;;;;;;;13.25;11.25;;;;;14.61;56.64;102937.78;5041457;28;45386;-46
2022/02/11 12:02:08;;;;;;;;;14.75;12.00;;;;;14.71;57.10;102931.69;5040719;28;45342;-51
2022/02/11 12:04:39;;;;;;;;;16.25;11.00;;;;;14.81;57.02;102940.53;5041812;28;45258;-48
2022/02/11 12:07:11;;;;;;;;;18.00;12.75;;;;;14.89;56.54;102941.47;5041793;28;45386;-49
2022/02/11 12:09:38;;;;;;;;;15.00;14.00;;;;;14.95;56.83;102932.63;5041573;28;45214;-48
2022/02/11 12:12:06;;;;;;;;;13.75;11.25;;;;;15.02;56.45;102923.84;5041552;28;45255;-46
2022/02/11 12:14:38;;;;;;;;;11.25;10.75;;;;;15.05;56.72;102912.38;5040365;28;45295;-47
2022/02/11 12:17:06;;;;;;;;;9.50;9.50;;;;;15.15;56.80;102916.78;5042725;28;45535;-45
2022/02/11 12:19:34;;;;;;;;;11.50;11.00;;;;;15.21;56.10;102915.91;5041266;28;45352;-49
2022/02/11 12:22:00;;;;;;;;;10.50;9.25;;;;;15.30;56.28;102909.75;5035688;28;46234;-46
2022/02/11 12:27:20;;;;;;;;;7.75;7.25;;;;;15.57;56.49;102911.50;5041691;28;45326;-46
2022/02/11 12:29:58;;;;;;;;;9.50;9.50;;;;;15.74;56.54;102908.84;5040212;28;45438;-45
2022/02/11 12:32:42;;;;;;;;;12.00;9.50;;;;;15.89;56.71;102918.56;5041322;28;46154;-46
2022/02/11 12:35:10;;;;;;;;;9.75;7.75;;;;;15.98;56.42;102910.59;5041204;28;45394;-45
2022/02/11 12:37:39;;;;;;;;;8.50;7.25;;;;;16.07;56.62;102909.69;5041442;28;45341;-47
2022/02/11 12:40:08;;;;;;;;;7.00;7.00;;;;;16.15;56.71;102912.31;5041175;28;45197;-47
2022/02/11 12:42:36;;;;;;;;;9.75;7.50;;;;;16.22;56.50;102917.59;5041117;28;46140;-50
2022/02/11 12:45:04;;;;;;;;;7.00;5.50;;;;;16.30;56.42;102914.03;5041146;28;45357;-47
2022/02/11 12:47:34;;;;;;;;;9.50;8.50;;;;;16.37;56.29;102902.50;5041043;28;45327;-50
2022/02/11 12:50:00;;;;;;;;;8.50;5.50;;;;;16.45;56.06;102903.34;5040942;28;45403;-47
2022/02/11 12:52:30;;;;;;;;;6.00;6.00;;;;;16.53;55.88;102903.34;5042280;28;45426;-46
2022/02/11 12:55:10;;;;;;;;;7.75;7.75;;;;;16.62;55.93;102907.72;5041096;28;45272;-46
2022/02/11 12:57:38;;;;;;;;;8.50;8.50;;;;;16.69;55.91;102893.50;5047097;28;45448;-46
2022/02/11 13:00:06;;;;;;;;;10.50;7.25;;;;;16.77;55.72;102891.69;5051429;28;45326;-45
2022/02/11 13:02:35;;;;;;;;;9.75;7.75;;;;;16.87;55.64;102885.41;5061048;28;47297;-45
2022/02/11 13:05:12;;;;;;;;;7.00;5.50;;;;;16.96;55.52;102892.47;5059430;28;45335;-48
2022/02/11 13:07:40;;;;;;;;;11.00;9.50;;;;;17.05;55.36;102883.56;5061257;28;45324;-51
2022/02/11 13:10:07;;;;;;;;;13.50;12.25;;;;;17.13;55.15;102888.81;5060702;28;45436;-45
2022/02/11 13:12:34;;;;;;;;;8.50;7.75;;;;;17.19;55.50;102891.44;5061026;28;46167;-49
2022/02/11 13:15:03;;;;;;;;;13.75;10.25;;;;;17.26;55.33;102892.25;5060847;28;45296;-51
2022/02/11 13:17:30;;;;;;;;;13.00;10.25;;;;;17.28;55.14;102885.16;5060954;28;45310;-50
2022/02/11 13:20:06;;;;;;;;;9.75;9.00;;;;;17.31;55.28;102893.13;5060399;28;45343;-50
2022/02/11 13:22:32;;;;;;;;;10.75;9.50;;;;;17.31;55.20;102898.44;5060458;28;46892;-51
2022/02/11 13:24:57;;;;;;;;;13.00;8.50;;;;;17.27;54.83;102886.94;5059217;28;45270;-51
2022/02/11 13:27:56;;;;;;;;;9.25;9.00;;;;;17.21;54.89;102892.31;5059578;28;45270;-46
2022/02/11 13:30:31;;;;;;;;;5.75;5.75;;;;;17.13;54.65;102903.00;5060801;27;45655;-49
2022/02/11 13:32:59;;;;;;;;;8.75;7.00;;;;;17.06;54.55;102899.47;5060488;28;46188;-49
2022/02/11 13:35:25;;;;;;;;;8.75;7.00;;;;;16.95;54.46;102897.81;5059073;28;45278;-48
2022/02/11 13:37:54;;;;;;;;;6.75;6.25;;;;;16.84;54.17;102896.06;5060689;28;45242;-50
2022/02/11 13:40:26;;;;;;;;;7.75;6.25;;;;;16.74;53.96;102895.25;5060241;28;45312;-46
2022/02/11 13:43:01;;;;;;;;;7.50;6.00;;;;;16.62;54.08;102891.78;5060243;28;47108;-50
2022/02/11 13:45:28;;;;;;;;;10.25;8.50;;;;;16.51;53.47;102897.13;5059069;28;45281;-46
2022/02/11 13:48:07;;;;;;;;;5.50;5.50;;;;;16.40;53.83;102886.56;5051423;28;45251;-48
2022/02/11 13:50:56;;;;;;;;;5.00;4.75;;;;;16.31;53.65;102897.22;5040052;28;45448;-50
2022/02/11 13:53:38;;;;;;;;;5.00;4.75;;;;;16.25;53.51;102892.81;5040258;28;45310;-50
2022/02/11 13:56:07;;;;;;;;;6.00;6.00;;;;;16.17;53.31;102887.53;5040054;28;45382;-47
2022/02/11 13:58:33;;;;;;;;;8.00;5.00;;;;;16.14;53.61;102882.25;5040289;28;45328;-47
2022/02/11 14:01:00;;;;;;;;;5.50;4.75;;;;;16.13;53.37;102887.56;5040089;28;45209;-43
2022/02/11 14:03:28;;;;;;;;;7.00;6.00;;;;;16.12;53.40;102885.81;5039808;28;46113;-48
2022/02/11 14:05:55;;;;;;;;;5.75;5.75;;;;;16.09;53.13;102887.56;5039046;28;45425;-48
2022/02/11 14:08:23;;;;;;;;;5.25;4.00;;;;;16.09;53.15;102889.34;5040114;28;45188;-48
2022/02/11 14:11:08;;;;;;;;;6.00;6.00;;;;;16.10;53.30;102888.47;5038604;28;45255;-47
2022/02/11 14:13:33;;;;;;;;;7.50;6.50;;;;;16.12;52.89;102881.38;5039905;28;46063;-47
2022/02/11 14:15:58;;;;;;;;;6.50;6.25;;;;;16.13;52.88;102875.19;5040080;28;45235;-47
2022/02/11 14:18:24;;;;;;;;;7.25;5.75;;;;;16.17;53.10;102868.09;5040032;28;45225;-48
2022/02/11 14:20:49;;;;;;;;;6.25;5.00;;;;;16.19;52.93;102861.03;5039704;28;45358;-46
2022/02/11 14:23:16;;;;;;;;;6.50;5.00;;;;;16.26;53.08;102868.06;5039825;28;45340;-47
2022/02/11 14:25:43;;;;;;;;;6.50;6.25;;;;;16.31;52.70;102868.03;5039802;28;45311;-49
2022/02/11 14:28:13;;;;;;;;;6.00;4.00;;;;;16.36;52.93;102861.84;5039807;28;45284;-51
2022/02/11 14:30:43;;;;;;;;;8.75;5.75;;;;;16.44;52.69;102869.75;5039818;28;45482;-47
2022/02/11 14:33:11;;;;;;;;;5.50;5.00;;;;;16.50;52.86;102867.06;5039660;28;46332;-48
2022/02/11 14:35:37;;;;;;;;;7.50;6.50;;;;;16.57;52.83;102868.78;5039432;28;45177;-49
2022/02/11 14:38:03;;;;;;;;;5.25;4.50;;;;;16.64;52.76;102866.09;5039674;28;45229;-47
2022/02/11 14:40:28;;;;;;;;;5.00;5.00;;;;;16.70;52.56;102868.72;5039451;28;45437;-46
2022/02/11 14:42:54;;;;;;;;;8.25;5.25;;;;;16.73;52.71;102874.03;5039245;28;45336;-47
2022/02/11 14:45:19;;;;;;;;;8.50;5.75;;;;;16.76;52.82;102865.16;5039826;28;45330;-47
2022/02/11 14:47:47;;;;;;;;;9.50;5.50;;;;;16.77;52.57;102865.13;5039622;28;45450;-47
2022/02/11 14:50:13;;;;;;;;;10.25;8.25;;;;;16.76;52.65;102865.16;5039387;28;45422;-48
2022/02/11 14:52:38;;;;;;;;;11.75;9.75;;;;;16.74;52.55;102866.03;5038053;28;46996;-47
2022/02/11 14:55:04;;;;;;;;;11.25;8.50;;;;;16.69;52.39;102865.19;5039401;28;45468;-47
2022/02/11 14:57:29;;;;;;;;;9.50;9.50;;;;;16.64;52.40;102869.66;5039505;28;45232;-48
2022/02/11 14:59:55;;;;;;;;;7.25;5.25;;;;;16.46;52.29;102852.03;5038040;28;45651;-49
2022/02/11 15:02:20;;;;;;;;;6.50;6.25;;;;;16.49;52.07;102877.66;5039352;28;46023;-51
2022/02/11 15:04:47;;;;;;;;;7.25;7.25;;;;;16.41;52.20;102869.75;5039188;28;45239;-47
2022/02/11 15:07:12;;;;;;;;;7.25;7.25;;;;;16.28;52.05;102860.97;5039477;28;45286;-47
2022/02/11 15:09:38;;;;;;;;;8.50;6.50;;;;;16.20;52.30;102870.72;5039063;28;45438;-47
2022/02/11 15:12:04;;;;;;;;;9.50;6.50;;;;;16.09;51.94;102870.78;5039158;28;46998;-46
2022/02/11 15:14:30;;;;;;;;;12.00;7.00;;;;;16.00;51.80;102868.16;5039319;28;45361;-49
2022/02/11 15:16:56;;;;;;;;;5.25;5.00;;;;;15.90;51.98;102857.59;5041797;28;45325;-47